This is the latest recevied weather packets stored in our database for station/object KD8UTJ. If no packets are shown the sender has not sent any weather packets the latest 1 day(s).
| Time | Temp. | Humidity | Pressure | Rain* | Wind** | Luminosity | Snow |
|---|---|---|---|---|---|---|---|
| 1778033508 | 23.89° C | 74% | 1018.4 hPa | 0 mm | 0.89 m/s, 105° | 0 W/m² | - |
| 1778033205 | 23.89° C | 71% | 1018.5 hPa | 0 mm | 0 m/s | 0 W/m² | - |
| 1778032903 | 23.89° C | 70% | 1018.5 hPa | 0 mm | 0.45 m/s, 131° | 0 W/m² | - |
| 1778032600 | 23.33° C | 69% | 1018.4 hPa | 0 mm | 0 m/s | 0 W/m² | - |
| 1778032297 | 23.33° C | 70% | 1018.5 hPa | 0 mm | 0 m/s | 0 W/m² | - |
| 1778031995 | 23.33° C | 70% | 1018.4 hPa | 0 mm | 0.45 m/s, 120° | 0 W/m² | - |
| 1778031690 | 23.89° C | 70% | 1018.4 hPa | 0 mm | 0.89 m/s, 99° | 0 W/m² | - |
| 1778031389 | 23.89° C | 70% | 1018.5 hPa | 0 mm | 0.45 m/s, 111° | 0 W/m² | - |
| 1778031085 | 23.89° C | 70% | 1018.3 hPa | 0 mm | 0 m/s | 0 W/m² | - |
| 1778030781 | 23.89° C | 69% | 1018.2 hPa | 0 mm | 0.45 m/s, 97° | 0 W/m² | - |
| 1778030478 | 23.89° C | 69% | 1018.2 hPa | 0 mm | 0.45 m/s, 119° | 0 W/m² | - |
| 1778030176 | 23.89° C | 68% | 1018.1 hPa | 0 mm | 0 m/s | 0 W/m² | - |
| 1778029872 | 23.89° C | 67% | 1018 hPa | 0 mm | 0 m/s | 0 W/m² | - |
| 1778029571 | 23.89° C | 67% | 1018 hPa | 0 mm | 0.89 m/s, 122° | 0 W/m² | - |
| 1778029268 | 23.89° C | 69% | 1017.8 hPa | 0 mm | 1.79 m/s, 62° | 0 W/m² | - |
| 1778028965 | 23.89° C | 70% | 1017.7 hPa | 0 mm | 0.89 m/s, 66° | 0 W/m² | - |
| 1778028661 | 23.89° C | 70% | 1017.5 hPa | 0 mm | 0 m/s | 0 W/m² | - |
| 1778028358 | 23.89° C | 70% | 1018 hPa | 0 mm | 0.89 m/s, 70° | 0 W/m² | - |
| 1778028054 | 23.89° C | 70% | 1017.8 hPa | 0 mm | 0.89 m/s, 139° | 0 W/m² | - |
| 1778027751 | 23.89° C | 70% | 1017.8 hPa | 0 mm | 0.89 m/s, 129° | 0 W/m² | - |
| 1778027447 | 23.89° C | 70% | 1017.7 hPa | 0 mm | 2.68 m/s, 89° | 0 W/m² | - |
| 1778027143 | 23.89° C | 70% | 1017.7 hPa | 0 mm | 1.79 m/s, 121° | 0 W/m² | - |
| 1778026839 | 23.89° C | 70% | 1017.6 hPa | 0 mm | 1.79 m/s, 89° | 0 W/m² | - |
| 1778026536 | 23.89° C | 69% | 1017.7 hPa | 0 mm | 0.89 m/s, 68° | 0 W/m² | - |
| 1778026233 | 23.89° C | 68% | 1017.6 hPa | 0 mm | 1.34 m/s, 67° | 0 W/m² | - |
* Rain latest hour (hover to see other rain measurements)
** Current wind speed in m/s (hover to see current wind gust speed)